Pagrindinis puslapis
METAR-TAF:

METAR-TAF

Oro uostai :

Eskišechiras, Turkija

platuma: 39-48-36N, ilguma: 30-31-10E, Aukštis: 789 m

Dabartinis oras

Ataskaita buvo paskelbta 27 minutes, ne 17:50 UTC
Vėjas 6 kt nuo kintamojo kryptimis
Temperatūra 17°C
Drėgmė 68%
Slėgis 1021 hPa
Matomumas 10 km arba daugiau
Mažai debesys ne aukštis 4000 ft

METAR: LTBY 151750Z VRB06KT 9999 FEW040 17/11 Q1021

Laikas: 21:17 (18:17 UTC)

Prognozė

Ataskaita buvo paskelbta 1 valandą ir 37 minutes, ne 16:40 UTC
Prognozė galioja nuo 15 metu 18 UTC su 16 metu 03 UTC
Vėjas 8 kt iš Vakarų
Matomumas 10 km arba daugiau
nėra debesų žemiau 1500 m ir nėra kamuolinių lietaus debesų

TAF: LTBY 151640Z 1518/1603 26008KT CAVOK

Orai ataskaitas ir orų prognozės (METAR, TAF).

turimą stotys yra geltonos ir raudonos taškus žemėlapyje.

Perkelti pele per norėdami pamatyti stoties vardą.

Tada spustelėkite, norėdami matyti oro stebėjimo ir prognozės.

Norėdami pakeisti žemėlapį: spustelėkite ant žalios mygtukų su juodo kryžiaus žemyn,; žalią mygtuką su brūkšneliu, jei norite nutolinti; arba žalių rodyklių gretimoms žemėlapius.


METAR-TAF: